createdAt,value
2023-04-28T00:00:37.764Z,3.23
2023-04-28T00:03:05.743Z,2.47
2023-04-28T00:05:33.466Z,3.77
2023-04-28T00:08:03.390Z,2.20
2023-04-28T00:10:32.208Z,1.80
2023-04-28T00:13:00.061Z,2.80
2023-04-28T00:15:27.821Z,2.90
2023-04-28T00:17:55.610Z,3.00
2023-04-28T00:20:23.273Z,3.20
2023-04-28T00:22:51.201Z,3.50
2023-04-28T00:25:20.130Z,2.10
2023-04-28T00:27:47.800Z,2.37
2023-04-28T00:30:15.747Z,2.90
2023-04-28T00:32:43.451Z,2.50
2023-04-28T00:35:11.242Z,2.83
2023-04-28T00:37:39.391Z,2.23
2023-04-28T00:40:08.595Z,4.03
2023-04-28T00:42:37.657Z,3.13
2023-04-28T00:45:07.294Z,3.13
2023-04-28T00:47:35.924Z,3.30
2023-04-28T00:50:05.731Z,2.80
2023-04-28T00:52:33.657Z,4.13
2023-04-28T00:55:01.582Z,3.23
2023-04-28T00:57:29.284Z,3.83
2023-04-28T00:59:58.282Z,2.90
2023-04-28T01:02:27.514Z,3.00
2023-04-28T01:04:57.105Z,3.60
2023-04-28T01:07:25.293Z,2.23
2023-04-28T01:09:53.460Z,2.23
2023-04-28T01:12:25.466Z,3.03
2023-04-28T01:14:55.961Z,2.13
2023-04-28T01:17:25.343Z,2.43
2023-04-28T01:19:53.913Z,2.60
2023-04-28T01:22:21.627Z,2.03
2023-04-28T01:24:50.578Z,2.63
2023-04-28T01:27:18.158Z,2.50
2023-04-28T01:29:46.062Z,2.63
2023-04-28T01:32:14.369Z,3.47
2023-04-28T01:34:42.047Z,2.63
2023-04-28T01:37:09.689Z,3.37
2023-04-28T01:39:38.740Z,3.73
2023-04-28T01:42:08.016Z,3.53
2023-04-28T01:44:35.912Z,2.90
2023-04-28T01:47:03.537Z,3.70
2023-04-28T01:49:31.608Z,4.00
2023-04-28T01:51:59.209Z,4.10
2023-04-28T01:54:27.565Z,3.37
2023-04-28T01:56:55.700Z,3.43
2023-04-28T01:59:25.546Z,2.93
2023-04-28T02:01:54.729Z,3.60
2023-04-28T02:04:22.694Z,3.50
2023-04-28T02:06:50.431Z,4.20
2023-04-28T02:09:18.684Z,2.37
2023-04-28T02:11:46.452Z,2.80
2023-04-28T02:14:14.652Z,2.97
2023-04-28T02:16:43.944Z,3.70
2023-04-28T02:19:12.718Z,3.10
2023-04-28T02:21:40.339Z,4.00
2023-04-28T02:24:09.108Z,3.43
2023-04-28T02:26:36.767Z,2.87
2023-04-28T02:29:04.759Z,3.40
2023-04-28T02:31:33.521Z,3.73
2023-04-28T02:34:02.730Z,3.40
2023-04-28T02:36:31.875Z,3.90
2023-04-28T02:38:59.951Z,3.30
2023-04-28T02:41:28.083Z,2.67
2023-04-28T02:43:56.956Z,3.70
2023-04-28T02:46:24.588Z,2.53
2023-04-28T02:48:52.448Z,2.93
2023-04-28T02:51:21.559Z,2.53
2023-04-28T02:53:49.204Z,2.90
2023-04-28T02:56:17.465Z,3.60
2023-04-28T02:58:45.159Z,3.80
2023-04-28T03:01:12.805Z,3.73
2023-04-28T03:03:41.110Z,3.30
2023-04-28T03:06:08.962Z,3.37
2023-04-28T03:08:38.075Z,2.60
2023-04-28T03:11:06.726Z,2.60
2023-04-28T03:13:35.977Z,3.03
2023-04-28T03:16:03.761Z,2.50
2023-04-28T03:18:31.623Z,3.50
2023-04-28T03:20:59.537Z,3.80
2023-04-28T03:23:28.878Z,3.83
2023-04-28T03:25:58.391Z,2.73
2023-04-28T03:28:27.209Z,2.77
2023-04-28T03:30:54.852Z,3.37
2023-04-28T03:33:22.623Z,3.83
2023-04-28T03:35:50.508Z,2.23
2023-04-28T03:38:18.744Z,2.77
2023-04-28T03:40:47.220Z,2.87
2023-04-28T03:43:16.179Z,2.27
2023-04-28T03:46:07.158Z,2.60
2023-04-28T03:48:34.960Z,2.63
2023-04-28T03:51:03.477Z,4.00
2023-04-28T03:53:32.131Z,2.97
2023-04-28T03:56:00.158Z,3.30
2023-04-28T03:58:29.227Z,2.80
2023-04-28T04:00:57.242Z,4.07
2023-04-28T04:03:26.436Z,3.00
2023-04-28T04:05:57.396Z,3.57
2023-04-28T04:08:25.357Z,3.67
2023-04-28T04:10:54.742Z,3.93
2023-04-28T04:13:22.469Z,3.40
2023-04-28T04:15:53.074Z,3.47
2023-04-28T04:18:22.794Z,3.77
2023-04-28T04:21:11.875Z,3.00
2023-04-28T04:23:39.596Z,3.10
2023-04-28T04:26:07.535Z,3.30
2023-04-28T04:28:35.995Z,2.90
2023-04-28T04:31:07.093Z,4.03
2023-04-28T04:33:34.823Z,4.30
2023-04-28T04:36:03.200Z,3.53
2023-04-28T04:38:31.406Z,2.97
2023-04-28T04:41:06.019Z,2.50
2023-04-28T04:43:33.706Z,3.37
2023-04-28T04:46:04.128Z,2.73
2023-04-28T04:48:34.683Z,2.53
2023-04-28T04:51:02.441Z,2.87
2023-04-28T04:53:30.060Z,1.63
2023-04-28T04:55:58.702Z,2.23
2023-04-28T04:58:27.333Z,2.83
2023-04-28T05:01:13.767Z,2.77
2023-04-28T05:03:43.776Z,3.07
2023-04-28T05:06:12.585Z,3.67
2023-04-28T05:08:44.727Z,2.47
2023-04-28T05:11:12.658Z,3.43
2023-04-28T05:13:41.575Z,3.73
2023-04-28T05:16:09.681Z,2.83
2023-04-28T05:19:05.104Z,3.60
2023-04-28T05:21:32.733Z,4.47
2023-04-28T05:24:01.017Z,2.57
2023-04-28T05:26:30.139Z,2.60
2023-04-28T05:29:03.965Z,4.10
2023-04-28T05:31:32.232Z,3.43
2023-04-28T05:34:00.072Z,3.67
2023-04-28T05:36:30.316Z,2.93
2023-04-28T05:38:58.308Z,3.20
2023-04-28T05:41:25.982Z,2.37
2023-04-28T05:43:53.650Z,3.10
2023-04-28T05:46:30.239Z,2.47
2023-04-28T05:49:00.542Z,2.57
2023-04-28T05:51:34.722Z,3.40
2023-04-28T05:54:03.168Z,2.53
2023-04-28T05:56:32.486Z,2.50
2023-04-28T05:59:04.247Z,3.97
2023-04-28T06:01:32.420Z,5.13
2023-04-28T06:04:00.592Z,4.27
2023-04-28T06:06:28.866Z,3.40
2023-04-28T06:08:58.097Z,3.87
2023-04-28T06:11:27.179Z,3.43
2023-04-28T06:13:54.814Z,3.63
2023-04-28T06:16:23.633Z,3.30
2023-04-28T06:18:51.957Z,2.47
2023-04-28T06:21:21.520Z,2.53
2023-04-28T06:23:49.267Z,2.60
2023-04-28T06:26:19.190Z,2.80
2023-04-28T06:28:46.952Z,2.33
2023-04-28T06:31:14.766Z,3.43
2023-04-28T06:33:42.431Z,1.73
2023-04-28T06:36:13.878Z,1.00
2023-04-28T06:38:42.674Z,0.73
2023-04-28T06:41:10.771Z,0.80
2023-04-28T06:43:40.078Z,0.67
2023-04-28T06:46:11.998Z,0.70
2023-04-28T06:48:39.766Z,0.67
2023-04-28T06:51:07.555Z,0.60
2023-04-28T06:53:36.297Z,0.60
2023-04-28T06:56:04.496Z,0.57
2023-04-28T06:58:32.175Z,0.80
2023-04-28T07:01:01.830Z,0.77
2023-04-28T07:03:29.567Z,0.83
2023-04-28T07:05:57.356Z,0.57
2023-04-28T07:08:24.977Z,0.50
2023-04-28T07:10:52.584Z,1.13
2023-04-28T07:13:20.739Z,0.60
2023-04-28T07:15:48.485Z,0.53
2023-04-28T07:18:17.564Z,1.00
2023-04-28T07:20:45.311Z,0.30
2023-04-28T07:23:13.714Z,0.47
2023-04-28T07:25:41.759Z,1.07
2023-04-28T07:28:10.175Z,0.60
2023-04-28T07:30:37.931Z,1.30
2023-04-28T07:33:05.867Z,1.50
2023-04-28T07:35:35.050Z,2.10
2023-04-28T07:38:03.673Z,1.43
2023-04-28T07:40:31.308Z,2.13
2023-04-28T07:42:59.170Z,0.67
2023-04-28T07:45:27.341Z,1.23
2023-04-28T07:47:55.032Z,1.10
2023-04-28T07:50:23.383Z,0.60
2023-04-28T07:52:52.746Z,0.57
2023-04-28T07:55:20.398Z,0.93
2023-04-28T07:57:49.602Z,0.60
2023-04-28T08:00:18.376Z,0.77
2023-04-28T08:02:46.312Z,0.50
2023-04-28T08:05:14.711Z,0.40
2023-04-28T08:07:42.754Z,0.77
2023-04-28T08:10:12.798Z,0.30
2023-04-28T08:12:41.426Z,1.40
2023-04-28T08:15:10.207Z,0.90
2023-04-28T08:17:38.296Z,1.33
2023-04-28T08:20:07.401Z,0.70
2023-04-28T08:22:35.547Z,0.90
2023-04-28T08:25:03.430Z,1.63
2023-04-28T08:27:34.118Z,1.20
2023-04-28T08:30:01.870Z,0.40
2023-04-28T08:32:29.606Z,1.13
2023-04-28T08:34:57.233Z,1.07
2023-04-28T08:37:25.023Z,0.70
2023-04-28T08:39:59.811Z,0.40
2023-04-28T08:42:30.076Z,0.70
2023-04-28T08:45:00.282Z,0.40
2023-04-28T08:47:34.920Z,0.77
2023-04-28T08:50:05.857Z,0.60
2023-04-28T08:52:34.187Z,0.53
2023-04-28T08:55:08.067Z,0.50
2023-04-28T08:57:40.103Z,0.70
2023-04-28T09:00:11.775Z,0.77
2023-04-28T09:02:42.492Z,0.63
2023-04-28T09:05:11.594Z,0.77
2023-04-28T09:07:40.302Z,0.30
2023-04-28T09:10:17.971Z,0.50
2023-04-28T09:12:45.697Z,0.70
2023-04-28T09:15:26.525Z,0.40
2023-04-28T09:17:54.528Z,0.50
2023-04-28T09:20:23.292Z,0.57
2023-04-28T09:22:51.807Z,0.47
2023-04-28T09:25:21.294Z,0.50
2023-04-28T09:27:49.029Z,1.53
2023-04-28T09:30:18.092Z,0.30
2023-04-28T09:32:45.787Z,0.30
2023-04-28T09:35:14.580Z,0.40
2023-04-28T09:37:43.452Z,0.47
2023-04-28T09:40:12.550Z,0.20
2023-04-28T09:42:42.041Z,1.80
2023-04-28T09:45:11.826Z,0.20
2023-04-28T09:47:42.647Z,0.70
2023-04-28T09:50:14.282Z,2.17
2023-04-28T09:52:44.227Z,1.53
2023-04-28T09:55:13.234Z,0.40
2023-04-28T09:57:41.257Z,0.63
2023-04-28T10:00:10.390Z,0.30
2023-04-28T10:05:12.207Z,0.30
2023-04-28T10:07:40.378Z,0.30
2023-04-28T10:10:08.994Z,0.40
2023-04-28T10:12:38.793Z,0.50
2023-04-28T10:15:09.608Z,0.20
2023-04-28T10:17:38.283Z,0.30
2023-04-28T10:20:08.574Z,0.57
2023-04-28T10:23:00.465Z,0.30
2023-04-28T10:25:29.755Z,0.40
2023-04-28T10:27:59.204Z,0.30
2023-04-28T10:30:29.525Z,0.30
2023-04-28T10:33:27.469Z,0.80
2023-04-28T10:35:55.533Z,0.40
2023-04-28T10:38:24.710Z,0.40
2023-04-28T10:40:53.741Z,0.40
2023-04-28T10:43:40.463Z,0.40
2023-04-28T10:46:09.484Z,0.43
2023-04-28T10:48:58.792Z,0.77
2023-04-28T10:51:30.027Z,1.13
2023-04-28T10:54:15.094Z,1.13
2023-04-28T10:57:16.063Z,0.90
2023-04-28T10:59:43.736Z,0.40
2023-04-28T11:02:44.893Z,0.73
2023-04-28T11:05:20.182Z,1.00
2023-04-28T11:08:33.350Z,0.73
2023-04-28T11:11:19.636Z,0.40
2023-04-28T11:13:48.645Z,0.90
2023-04-28T11:16:18.392Z,1.23
2023-04-28T11:19:14.219Z,0.23
2023-04-28T11:21:41.825Z,0.50
2023-04-28T11:24:11.024Z,0.97
2023-04-28T11:26:40.034Z,0.43
2023-04-28T11:29:08.624Z,0.60
2023-04-28T11:31:36.626Z,0.30
2023-04-28T11:34:06.162Z,0.60
2023-04-28T11:36:36.444Z,0.30
2023-04-28T11:39:07.918Z,0.50
2023-04-28T11:41:36.505Z,0.53
2023-04-28T11:44:12.754Z,0.60
2023-04-28T11:46:46.865Z,0.53
2023-04-28T11:49:15.373Z,0.30
2023-04-28T11:51:44.830Z,0.50
2023-04-28T11:54:14.833Z,0.30
2023-04-28T11:56:44.800Z,0.40
2023-04-28T11:59:14.557Z,0.43
2023-04-28T12:01:47.629Z,0.30
2023-04-28T12:04:16.116Z,0.40
2023-04-28T12:06:44.035Z,1.03
2023-04-28T12:09:21.247Z,0.40
2023-04-28T12:11:57.483Z,0.40
2023-04-28T12:14:27.016Z,0.20
2023-04-28T12:16:54.674Z,0.63
2023-04-28T12:19:22.380Z,0.93
2023-04-28T12:22:01.273Z,0.40
2023-04-28T12:24:29.492Z,0.20
2023-04-28T12:27:16.652Z,0.60
2023-04-28T12:29:47.262Z,0.20
2023-04-28T12:32:15.917Z,0.40
2023-04-28T12:34:45.422Z,0.30
2023-04-28T12:37:13.673Z,0.20
2023-04-28T12:39:42.514Z,0.10
2023-04-28T12:42:10.331Z,0.10
2023-04-28T12:44:39.017Z,0.20
2023-04-28T12:47:10.782Z,0.17
2023-04-28T12:49:39.193Z,0.10
2023-04-28T12:52:07.433Z,0.17
2023-04-28T12:54:35.062Z,0.10
2023-04-28T12:57:03.134Z,0.73
2023-04-28T12:59:31.517Z,0.13
2023-04-28T13:01:59.684Z,0.40
2023-04-28T13:04:28.979Z,0.10
2023-04-28T13:06:58.473Z,0.10
2023-04-28T13:09:26.666Z,0.10
2023-04-28T13:11:54.541Z,0.30
2023-04-28T13:14:22.297Z,0.20
2023-04-28T13:16:51.747Z,0.20
2023-04-28T13:19:19.463Z,0.23
2023-04-28T13:21:48.581Z,0.20
2023-04-28T13:24:16.368Z,0.20
2023-04-28T13:26:45.202Z,0.20
2023-04-28T13:29:14.319Z,0.30
2023-04-28T13:31:42.566Z,0.57
2023-04-28T13:34:15.756Z,0.10
2023-04-28T13:36:43.590Z,0.17
2023-04-28T13:39:14.544Z,0.10
2023-04-28T13:41:42.514Z,0.13
2023-04-28T13:44:10.232Z,0.40
2023-04-28T13:46:38.092Z,0.20
2023-04-28T13:49:05.755Z,0.50
2023-04-28T13:51:34.023Z,0.20
2023-04-28T13:54:04.190Z,0.20
2023-04-28T13:56:33.411Z,0.20
2023-04-28T13:59:01.057Z,0.30
2023-04-28T14:01:28.823Z,0.20
2023-04-28T14:03:56.647Z,0.50
2023-04-28T14:06:24.602Z,0.50
2023-04-28T14:08:52.365Z,0.30
2023-04-28T14:11:20.016Z,0.33
2023-04-28T14:13:49.314Z,0.40
2023-04-28T14:16:17.024Z,0.20
2023-04-28T14:18:44.647Z,0.33
2023-04-28T14:21:12.235Z,0.50
2023-04-28T14:23:40.090Z,0.37
2023-04-28T14:26:07.848Z,0.30
2023-04-28T14:28:35.435Z,0.80
2023-04-28T14:31:08.623Z,0.70
2023-04-28T14:33:36.662Z,0.20
2023-04-28T14:36:04.956Z,0.40
2023-04-28T14:38:32.907Z,0.37
2023-04-28T14:41:00.576Z,0.53
2023-04-28T14:43:28.156Z,0.60
2023-04-28T14:45:55.766Z,0.83
2023-04-28T14:48:24.927Z,1.37
2023-04-28T14:50:52.519Z,0.47
2023-04-28T14:53:20.242Z,0.60
2023-04-28T14:55:47.905Z,0.63
2023-04-28T14:58:15.903Z,0.53
2023-04-28T15:00:44.222Z,0.30
2023-04-28T15:03:12.106Z,0.80
2023-04-28T15:05:41.144Z,0.53
2023-04-28T15:08:08.887Z,0.77
2023-04-28T15:10:40.364Z,0.57
2023-04-28T15:13:09.123Z,0.80
2023-04-28T15:15:36.934Z,0.50
2023-04-28T15:18:05.095Z,0.50
2023-04-28T15:20:33.750Z,1.00
2023-04-28T15:23:02.811Z,0.97
2023-04-28T15:25:30.550Z,0.70
2023-04-28T15:27:58.402Z,0.50
2023-04-28T15:30:26.058Z,0.40
2023-04-28T15:32:53.761Z,0.70
2023-04-28T15:35:22.022Z,0.93
2023-04-28T15:37:52.212Z,1.00
2023-04-28T15:40:21.584Z,1.30
2023-04-28T15:42:51.522Z,1.03
2023-04-28T15:45:20.910Z,1.30
2023-04-28T15:47:50.161Z,1.43
2023-04-28T15:50:19.766Z,2.00
2023-04-28T15:52:49.712Z,1.10
2023-04-28T15:55:19.340Z,1.23
2023-04-28T15:57:49.095Z,1.57
2023-04-28T16:00:17.639Z,1.47
2023-04-28T16:02:46.427Z,1.20
2023-04-28T16:05:14.270Z,2.00
2023-04-28T16:07:42.051Z,1.77
2023-04-28T16:10:11.503Z,2.60
2023-04-28T16:12:39.945Z,2.20
2023-04-28T16:15:11.244Z,3.60
2023-04-28T16:17:40.287Z,1.60
2023-04-28T16:20:10.099Z,2.13
2023-04-28T16:22:39.833Z,1.77
2023-04-28T16:25:07.979Z,1.90
2023-04-28T16:27:36.453Z,1.73
2023-04-28T16:30:06.228Z,2.27
2023-04-28T16:32:36.624Z,1.97
2023-04-28T16:35:06.189Z,2.17
2023-04-28T16:37:33.939Z,2.20
2023-04-28T16:40:01.636Z,2.47
2023-04-28T16:42:29.372Z,2.50
2023-04-28T16:44:58.475Z,2.70
2023-04-28T16:47:26.487Z,2.87
2023-04-28T16:49:55.431Z,2.20
2023-04-28T16:52:23.026Z,1.50
2023-04-28T16:54:50.679Z,2.80
2023-04-28T16:57:18.422Z,1.30
2023-04-28T16:59:46.287Z,1.57
2023-04-28T17:02:13.971Z,1.87
2023-04-28T17:04:41.856Z,2.07
2023-04-28T17:07:10.925Z,1.10
2023-04-28T17:09:38.731Z,0.97
2023-04-28T17:12:06.605Z,0.83
2023-04-28T17:14:35.553Z,1.00
2023-04-28T17:17:04.593Z,0.83
2023-04-28T17:19:32.666Z,0.90
2023-04-28T17:22:00.654Z,0.60
2023-04-28T17:24:29.605Z,0.57
2023-04-28T17:26:57.227Z,0.67
2023-04-28T17:29:24.831Z,0.40
2023-04-28T17:31:53.042Z,0.50
2023-04-28T17:34:20.966Z,0.30
2023-04-28T17:36:48.586Z,0.57
2023-04-28T17:39:16.804Z,0.13
2023-04-28T17:41:46.746Z,0.30
2023-04-28T17:44:14.528Z,0.40
2023-04-28T17:46:42.608Z,0.70
2023-04-28T17:49:10.921Z,0.27
2023-04-28T17:51:38.525Z,0.43
2023-04-28T17:54:09.378Z,0.30
2023-04-28T17:56:38.468Z,0.50
2023-04-28T17:59:08.814Z,0.43
2023-04-28T18:01:36.535Z,0.50
2023-04-28T18:04:04.810Z,0.23
2023-04-28T18:06:32.398Z,0.30
2023-04-28T18:09:00.004Z,1.57
2023-04-28T18:11:28.100Z,0.40
2023-04-28T18:13:56.053Z,0.40
2023-04-28T18:16:25.150Z,0.23
2023-04-28T18:18:53.102Z,0.30
2023-04-28T18:21:21.243Z,0.93
2023-04-28T18:23:49.082Z,1.03
2023-04-28T18:26:16.658Z,1.20
2023-04-28T18:28:48.185Z,1.70
2023-04-28T18:31:16.268Z,2.00
2023-04-28T18:33:45.382Z,1.80
2023-04-28T18:36:13.056Z,1.90
2023-04-28T18:38:41.248Z,1.37
2023-04-28T18:41:16.960Z,0.97
2023-04-28T18:43:45.081Z,1.87
2023-04-28T18:46:12.800Z,1.43
2023-04-28T18:48:40.929Z,0.70
2023-04-28T18:51:09.948Z,0.60
2023-04-28T18:53:37.622Z,1.70
2023-04-28T18:56:05.427Z,3.87
2023-04-28T18:58:33.243Z,2.53
2023-04-28T19:01:00.953Z,3.70
2023-04-28T19:03:29.230Z,4.30
2023-04-28T19:05:57.162Z,1.87
2023-04-28T19:08:26.195Z,1.27
2023-04-28T19:10:53.779Z,1.33
2023-04-28T19:13:21.482Z,0.90
2023-04-28T19:15:53.479Z,0.53
2023-04-28T19:18:21.186Z,1.67
2023-04-28T19:20:50.487Z,1.13
2023-04-28T19:23:18.054Z,1.30
2023-04-28T19:25:47.504Z,1.43
2023-04-28T19:28:15.104Z,1.13
2023-04-28T19:30:42.828Z,0.50
2023-04-28T19:33:10.462Z,0.73
2023-04-28T19:35:38.631Z,1.53
2023-04-28T19:38:06.255Z,1.20
2023-04-28T19:40:34.173Z,0.80
2023-04-28T19:43:03.117Z,0.60
2023-04-28T19:45:30.825Z,0.43
2023-04-28T19:47:58.514Z,0.60
2023-04-28T19:50:26.260Z,0.40
2023-04-28T19:52:53.908Z,1.00
2023-04-28T19:55:23.352Z,0.37
2023-04-28T19:57:52.137Z,0.43
2023-04-28T20:00:21.797Z,0.60
2023-04-28T20:02:49.821Z,1.60
2023-04-28T20:05:17.481Z,0.47
2023-04-28T20:07:45.080Z,2.10
2023-04-28T20:10:13.034Z,0.57
2023-04-28T20:12:41.095Z,0.50
2023-04-28T20:15:09.879Z,0.20
2023-04-28T20:17:38.968Z,1.10
2023-04-28T20:20:08.139Z,0.57
2023-04-28T20:22:36.270Z,0.60
2023-04-28T20:25:06.053Z,0.70
2023-04-28T20:27:34.555Z,1.33
2023-04-28T20:30:02.379Z,0.80
2023-04-28T20:32:30.055Z,0.20
2023-04-28T20:34:59.224Z,0.43
2023-04-28T20:37:27.179Z,0.40
2023-04-28T20:39:54.857Z,0.40
2023-04-28T20:42:22.455Z,0.27
2023-04-28T20:44:50.806Z,1.40
2023-04-28T20:47:18.832Z,0.77
2023-04-28T20:49:47.311Z,0.90
2023-04-28T20:52:16.271Z,1.20
2023-04-28T20:54:43.877Z,0.80
2023-04-28T20:57:11.495Z,0.83
2023-04-28T20:59:39.083Z,0.50
2023-04-28T21:02:06.729Z,0.47
2023-04-28T21:04:34.355Z,0.40
2023-04-28T21:07:02.300Z,0.20
2023-04-28T21:09:31.217Z,0.40
2023-04-28T21:11:58.932Z,0.33
2023-04-28T21:14:26.871Z,0.10
2023-04-28T21:16:54.777Z,0.10
2023-04-28T21:19:22.561Z,0.67
2023-04-28T21:21:50.301Z,0.30
2023-04-28T21:24:17.895Z,0.20
2023-04-28T21:26:47.540Z,0.30
2023-04-28T21:29:15.448Z,0.20
2023-04-28T21:31:43.257Z,0.30
2023-04-28T21:34:10.996Z,0.20
2023-04-28T21:36:38.725Z,0.70
2023-04-28T21:39:07.573Z,0.40
2023-04-28T21:41:35.192Z,0.20
2023-04-28T21:44:04.172Z,0.97
2023-04-28T21:46:31.968Z,0.60
2023-04-28T21:48:59.564Z,0.60
2023-04-28T21:51:27.574Z,0.57
2023-04-28T21:53:55.334Z,0.30
2023-04-28T21:56:23.060Z,0.40
2023-04-28T21:58:50.664Z,0.30
2023-04-28T22:01:19.916Z,0.47
2023-04-28T22:03:48.853Z,0.30
2023-04-28T22:06:16.719Z,0.60
2023-04-28T22:08:44.408Z,0.30
2023-04-28T22:11:12.420Z,0.30
2023-04-28T22:13:40.065Z,0.43
2023-04-28T22:16:07.828Z,0.40
2023-04-28T22:18:36.811Z,0.30
2023-04-28T22:21:05.450Z,0.30
2023-04-28T22:23:33.036Z,0.50
2023-04-28T22:26:00.872Z,0.20
2023-04-28T22:28:28.516Z,0.30
2023-04-28T22:30:56.288Z,0.27
2023-04-28T22:33:24.149Z,0.43
2023-04-28T22:35:53.439Z,0.20
2023-04-28T22:38:21.451Z,0.20
2023-04-28T22:40:49.157Z,0.60
2023-04-28T22:43:16.769Z,0.40
2023-04-28T22:45:45.632Z,0.40
2023-04-28T22:48:13.615Z,0.30
2023-04-28T22:50:41.416Z,0.40
2023-04-28T22:53:10.393Z,0.67
2023-04-28T22:55:38.521Z,0.60
2023-04-28T22:58:06.694Z,0.40
2023-04-28T23:00:35.784Z,0.80
2023-04-28T23:03:04.487Z,0.40
2023-04-28T23:05:32.707Z,0.50
2023-04-28T23:08:00.275Z,0.67
2023-04-28T23:10:29.315Z,0.60
2023-04-28T23:12:57.163Z,0.40
2023-04-28T23:15:24.768Z,0.63
2023-04-28T23:17:52.523Z,0.60
2023-04-28T23:20:20.254Z,0.30
2023-04-28T23:22:47.870Z,1.40
2023-04-28T23:25:15.650Z,0.37
2023-04-28T23:27:44.811Z,0.27
2023-04-28T23:30:13.678Z,0.50
2023-04-28T23:32:42.479Z,0.30
2023-04-28T23:35:10.586Z,0.57
2023-04-28T23:37:38.219Z,0.40
2023-04-28T23:40:07.070Z,0.40
2023-04-28T23:42:34.778Z,0.57
2023-04-28T23:45:03.772Z,0.70
2023-04-28T23:47:31.512Z,1.37
2023-04-28T23:49:59.123Z,0.63
2023-04-28T23:52:27.101Z,0.60
2023-04-28T23:54:54.683Z,0.77
2023-04-28T23:57:22.584Z,0.90
2023-04-28T23:59:50.368Z,0.90
